Time;durP1;ratioP1;P1;durP2;ratioP2;P2;SDS_P1;SDS_P2;PMS_P1;PMS_P2;Temp;Humidity;BMP_temperature;BMP_pressure;BME280_temperature;BME280_humidity;BME280_pressure;Samples;Min_cycle;Max_cycle;Signal;HPM_P1;HPM_P2
2022/05/14 00:00:13;;;;;;;4.55;1.83;;;;;;;;;;514228;28;1490;-84
2022/05/14 00:00:29;;;;;;;4.13;1.83;;;;;;;;;;513320;28;1434;-84
2022/05/14 00:00:44;;;;;;;3.70;1.70;;;;;;;;;;514288;28;1194;-84
2022/05/14 00:01:00;;;;;;;4.77;1.80;;;;;;;;;;514142;28;1590;-84
2022/05/14 00:01:15;;;;;;;5.60;1.80;;;;;;;;;;514323;28;1440;-84
2022/05/14 00:01:31;;;;;;;4.60;1.80;;;;;;;;;;512929;28;1607;-84
2022/05/14 00:01:47;;;;;;;4.73;1.90;;;;;;;;;;513127;28;1926;-84
2022/05/14 00:02:03;;;;;;;5.13;1.85;;;;;;;;;;513023;28;1541;-84
2022/05/14 00:02:19;;;;;;;4.80;1.80;;;;;;;;;;513453;28;1624;-84
2022/05/14 00:02:35;;;;;;;4.70;1.70;;;;;;;;;;515391;28;1393;-84
2022/05/14 00:02:51;;;;;;;5.57;1.90;;;;;;;;;;517226;28;1676;-84
2022/05/14 00:03:06;;;;;;;4.32;2.00;;;;;;;;;;515042;28;1709;-84
2022/05/14 00:03:23;;;;;;;3.53;1.80;;;;;;;;;;515631;28;1706;-84
2022/05/14 00:03:38;;;;;;;4.47;1.73;;;;;;;;;;517612;28;1478;-84
2022/05/14 00:03:54;;;;;;;5.43;1.97;;;;;;;;;;515605;28;1372;-84
2022/05/14 00:04:10;;;;;;;4.63;2.03;;;;;;;;;;515775;28;884;-84
2022/05/14 00:04:25;;;;;;;4.10;1.80;;;;;;;;;;514026;28;865;-84
2022/05/14 00:04:41;;;;;;;5.05;1.70;;;;;;;;;;514651;28;1568;-84
2022/05/14 00:04:56;;;;;;;4.67;1.70;;;;;;;;;;516034;28;1211;-84
2022/05/14 00:05:12;;;;;;;4.83;2.00;;;;;;;;;;516672;28;1411;-84
2022/05/14 00:05:27;;;;;;;4.20;2.00;;;;;;;;;;518084;28;911;-84
2022/05/14 00:05:43;;;;;;;3.77;1.90;;;;;;;;;;517501;28;1578;-84
2022/05/14 00:06:02;;;;;;;4.60;2.00;;;;;;;;;;517979;28;1197;-84
2022/05/14 00:06:24;;;;;;;5.82;2.08;;;;;;;;;;516037;28;923;-83
2022/05/14 00:06:41;;;;;;;5.15;1.83;;;;;;;;;;514082;28;960;-84
2022/05/14 00:06:56;;;;;;;5.70;1.80;;;;;;;;;;512297;28;1563;-84
2022/05/14 00:07:11;;;;;;;4.47;1.87;;;;;;;;;;512465;29;1109;-84
2022/05/14 00:07:27;;;;;;;4.40;2.03;;;;;;;;;;512367;29;750;-84
2022/05/14 00:07:42;;;;;;;6.47;2.00;;;;;;;;;;512499;29;1026;-84
2022/05/14 00:07:58;;;;;;;6.43;1.90;;;;;;;;;;512608;29;838;-84
2022/05/14 00:08:16;;;;;;;3.50;1.83;;;;;;;;;;513472;28;1740;-84
2022/05/14 00:08:31;;;;;;;3.50;1.75;;;;;;;;;;514734;28;1608;-84
2022/05/14 00:08:47;;;;;;;3.90;1.80;;;;;;;;;;516632;28;1319;-84
2022/05/14 00:09:05;;;;;;;3.30;1.75;;;;;;;;;;518412;28;1891;-84
2022/05/14 00:09:20;;;;;;;4.22;1.80;;;;;;;;;;518435;28;868;-84
2022/05/14 00:09:41;;;;;;;5.53;1.80;;;;;;;;;;518338;28;1030;-84
2022/05/14 00:09:57;;;;;;;3.53;1.88;;;;;;;;;;516146;28;876;-84
2022/05/14 00:10:13;;;;;;;3.30;1.80;;;;;;;;;;514377;28;1177;-84
2022/05/14 00:10:32;;;;;;;3.38;1.80;;;;;;;;;;514412;28;948;-84
2022/05/14 00:13:05;;;;;;;4.97;1.90;;;;;;;;;;517140;28;1633;-83
2022/05/14 00:13:22;;;;;;;4.18;1.80;;;;;;;;;;517354;28;1636;-83
2022/05/14 00:13:38;;;;;;;4.10;1.80;;;;;;;;;;517921;28;1557;-83
2022/05/14 00:13:54;;;;;;;3.73;1.97;;;;;;;;;;515301;28;1452;-83
2022/05/14 00:14:11;;;;;;;3.88;1.90;;;;;;;;;;515691;28;1464;-83
2022/05/14 00:14:26;;;;;;;4.13;1.80;;;;;;;;;;516165;28;708;-83
2022/05/14 00:14:42;;;;;;;3.70;1.90;;;;;;;;;;515512;28;1558;-83
2022/05/14 00:14:57;;;;;;;5.82;2.20;;;;;;;;;;514436;28;955;-83
2022/05/14 00:15:13;;;;;;;6.22;2.10;;;;;;;;;;515393;28;837;-83
2022/05/14 00:15:28;;;;;;;6.20;1.90;;;;;;;;;;515303;28;1236;-84
2022/05/14 00:15:44;;;;;;;5.25;1.80;;;;;;;;;;513140;28;1382;-84
2022/05/14 00:15:59;;;;;;;5.18;1.80;;;;;;;;;;513889;28;1165;-84
2022/05/14 00:16:16;;;;;;;5.30;1.90;;;;;;;;;;513897;28;862;-84
2022/05/14 00:16:33;;;;;;;4.78;1.80;;;;;;;;;;514170;28;1508;-84
2022/05/14 00:16:50;;;;;;;4.15;1.85;;;;;;;;;;515940;28;1356;-84
2022/05/14 00:17:05;;;;;;;3.22;1.88;;;;;;;;;;515427;28;1646;-84
2022/05/14 00:17:21;;;;;;;4.28;1.73;;;;;;;;;;516240;28;1307;-84
2022/05/14 00:17:36;;;;;;;4.80;1.80;;;;;;;;;;515521;28;953;-84
2022/05/14 00:17:54;;;;;;;3.17;1.80;;;;;;;;;;515089;28;1602;-84
2022/05/14 00:18:10;;;;;;;3.80;1.80;;;;;;;;;;515537;28;1380;-84
2022/05/14 00:18:26;;;;;;;4.95;1.90;;;;;;;;;;516078;28;931;-84
2022/05/14 00:18:42;;;;;;;5.93;2.00;;;;;;;;;;514762;28;894;-84
2022/05/14 00:18:58;;;;;;;5.75;1.90;;;;;;;;;;515968;28;1726;-84
2022/05/14 00:19:17;;;;;;;4.18;1.92;;;;;;;;;;515793;28;1010;-84
2022/05/14 00:19:33;;;;;;;5.63;2.00;;;;;;;;;;515032;28;1699;-84
2022/05/14 00:19:48;;;;;;;5.07;1.97;;;;;;;;;;516110;28;1416;-84
2022/05/14 00:20:04;;;;;;;5.25;1.92;;;;;;;;;;517963;28;876;-84
2022/05/14 00:20:22;;;;;;;5.22;1.90;;;;;;;;;;514673;28;1544;-84
2022/05/14 00:20:39;;;;;;;4.32;2.00;;;;;;;;;;514062;28;861;-84
2022/05/14 00:20:54;;;;;;;4.28;1.88;;;;;;;;;;514007;28;1098;-84
2022/05/14 00:21:10;;;;;;;3.50;1.80;;;;;;;;;;513985;28;1253;-84
2022/05/14 00:21:26;;;;;;;3.00;1.67;;;;;;;;;;514058;28;1043;-84
2022/05/14 00:21:42;;;;;;;3.50;1.70;;;;;;;;;;514298;28;1662;-84
2022/05/14 00:21:57;;;;;;;4.17;1.90;;;;;;;;;;514797;28;1167;-84
2022/05/14 00:22:13;;;;;;;4.15;1.90;;;;;;;;;;515360;28;1594;-84
2022/05/14 00:22:28;;;;;;;4.73;2.00;;;;;;;;;;516099;28;810;-84
2022/05/14 00:22:43;;;;;;;5.18;2.10;;;;;;;;;;514135;28;1503;-83
2022/05/14 00:22:59;;;;;;;4.23;2.00;;;;;;;;;;514239;28;1436;-83
2022/05/14 00:23:14;;;;;;;3.90;1.90;;;;;;;;;;516073;28;1347;-84
2022/05/14 00:23:30;;;;;;;4.45;2.00;;;;;;;;;;515400;28;900;-84
2022/05/14 00:23:45;;;;;;;4.20;1.87;;;;;;;;;;514377;28;1503;-84
2022/05/14 00:24:02;;;;;;;3.65;1.77;;;;;;;;;;514259;28;1197;-84
2022/05/14 00:24:18;;;;;;;3.53;1.83;;;;;;;;;;516078;28;976;-84
2022/05/14 00:24:33;;;;;;;4.93;1.80;;;;;;;;;;516007;28;833;-84
2022/05/14 00:24:49;;;;;;;5.30;1.75;;;;;;;;;;515486;28;1546;-84
2022/05/14 00:25:05;;;;;;;4.78;1.80;;;;;;;;;;515603;28;1510;-84
2022/05/14 00:25:22;;;;;;;4.88;1.80;;;;;;;;;;514331;28;1548;-84
2022/05/14 00:25:38;;;;;;;3.33;1.80;;;;;;;;;;514708;28;1419;-84
2022/05/14 00:25:53;;;;;;;3.77;1.97;;;;;;;;;;515337;28;1292;-84
2022/05/14 00:26:09;;;;;;;4.40;1.87;;;;;;;;;;513046;28;1498;-84
2022/05/14 00:26:26;;;;;;;4.90;1.80;;;;;;;;;;513801;28;1387;-84
2022/05/14 00:26:43;;;;;;;3.83;1.80;;;;;;;;;;513663;28;1675;-84
2022/05/14 00:26:58;;;;;;;3.22;1.80;;;;;;;;;;514900;28;1063;-82
2022/05/14 00:27:14;;;;;;;4.37;1.80;;;;;;;;;;514456;28;1026;-82
2022/05/14 00:27:29;;;;;;;5.60;1.90;;;;;;;;;;514260;28;980;-83
2022/05/14 00:27:45;;;;;;;6.30;2.00;;;;;;;;;;513686;28;1510;-84
2022/05/14 00:28:02;;;;;;;5.38;1.92;;;;;;;;;;514072;28;1210;-84
2022/05/14 00:28:17;;;;;;;4.75;1.90;;;;;;;;;;514826;28;1326;-84
2022/05/14 00:28:33;;;;;;;4.82;1.77;;;;;;;;;;518090;28;848;-84
2022/05/14 00:28:48;;;;;;;5.63;1.80;;;;;;;;;;514896;28;1547;-84
2022/05/14 00:29:05;;;;;;;5.50;1.95;;;;;;;;;;512856;28;1923;-84
2022/05/14 00:29:21;;;;;;;4.57;1.90;;;;;;;;;;510136;29;1231;-84
2022/05/14 00:29:36;;;;;;;4.63;1.80;;;;;;;;;;509221;29;1499;-84
2022/05/14 00:29:52;;;;;;;4.32;1.90;;;;;;;;;;510795;29;1565;-84
2022/05/14 00:30:08;;;;;;;4.20;1.80;;;;;;;;;;510488;28;1574;-84
2022/05/14 00:30:26;;;;;;;4.63;1.80;;;;;;;;;;511114;29;1525;-84
2022/05/14 00:30:42;;;;;;;4.35;1.90;;;;;;;;;;512475;28;1461;-84
2022/05/14 00:30:57;;;;;;;5.07;1.90;;;;;;;;;;513098;28;1224;-84
2022/05/14 00:31:13;;;;;;;4.60;1.80;;;;;;;;;;513278;28;1548;-84
2022/05/14 00:31:29;;;;;;;4.53;1.70;;;;;;;;;;514819;28;1138;-84
2022/05/14 00:31:44;;;;;;;5.38;1.70;;;;;;;;;;516408;28;849;-84
2022/05/14 00:32:00;;;;;;;4.23;1.80;;;;;;;;;;514139;28;1281;-84
2022/05/14 00:32:15;;;;;;;5.25;1.90;;;;;;;;;;513704;28;1539;-84
2022/05/14 00:32:31;;;;;;;6.47;2.00;;;;;;;;;;513683;28;1631;-84
2022/05/14 00:32:47;;;;;;;5.10;2.07;;;;;;;;;;513902;28;1432;-84
2022/05/14 00:33:03;;;;;;;3.85;1.92;;;;;;;;;;515926;28;1096;-84
2022/05/14 00:33:19;;;;;;;4.57;1.80;;;;;;;;;;516565;28;1304;-84
2022/05/14 00:33:34;;;;;;;4.83;1.90;;;;;;;;;;515216;28;1445;-84
2022/05/14 00:33:49;;;;;;;3.63;1.88;;;;;;;;;;514205;28;1629;-84
2022/05/14 00:34:05;;;;;;;3.50;1.77;;;;;;;;;;517850;28;1268;-84
2022/05/14 00:34:20;;;;;;;4.90;1.95;;;;;;;;;;516041;28;861;-83
2022/05/14 00:34:36;;;;;;;6.07;2.00;;;;;;;;;;516113;28;869;-83
2022/05/14 00:34:51;;;;;;;5.57;1.90;;;;;;;;;;516588;28;1598;-84
2022/05/14 00:35:09;;;;;;;4.90;1.90;;;;;;;;;;516815;28;1281;-84
2022/05/14 00:35:25;;;;;;;3.53;1.70;;;;;;;;;;516667;28;1469;-84
2022/05/14 00:35:41;;;;;;;3.23;1.70;;;;;;;;;;516135;28;1173;-84
2022/05/14 00:35:57;;;;;;;3.58;1.80;;;;;;;;;;514378;28;857;-84
2022/05/14 00:36:12;;;;;;;4.63;1.90;;;;;;;;;;514404;28;1505;-84
2022/05/14 00:36:28;;;;;;;4.67;2.00;;;;;;;;;;516080;28;1432;-84
2022/05/14 00:36:43;;;;;;;4.65;1.88;;;;;;;;;;513788;28;1545;-84
2022/05/14 00:37:00;;;;;;;5.30;1.80;;;;;;;;;;515349;28;1516;-84
2022/05/14 00:37:16;;;;;;;4.05;1.80;;;;;;;;;;513911;28;1459;-84
2022/05/14 00:37:32;;;;;;;3.38;1.90;;;;;;;;;;512163;29;1596;-84
2022/05/14 00:37:47;;;;;;;4.15;2.10;;;;;;;;;;511906;28;1568;-84
2022/05/14 00:38:04;;;;;;;4.97;2.00;;;;;;;;;;511969;28;924;-82
2022/05/14 00:38:20;;;;;;;4.97;2.03;;;;;;;;;;512457;28;1354;-83
2022/05/14 00:38:35;;;;;;;4.67;2.10;;;;;;;;;;511495;28;1721;-84
2022/05/14 00:38:51;;;;;;;4.90;2.03;;;;;;;;;;511917;29;877;-84
2022/05/14 00:39:06;;;;;;;4.63;1.90;;;;;;;;;;512438;28;1631;-84
2022/05/14 00:39:21;;;;;;;4.35;1.95;;;;;;;;;;513417;28;1567;-84
2022/05/14 00:39:37;;;;;;;5.87;2.13;;;;;;;;;;512524;28;1153;-84
2022/05/14 00:39:52;;;;;;;6.97;2.10;;;;;;;;;;511836;29;1157;-84
2022/05/14 00:40:13;;;;;;;5.13;2.03;;;;;;;;;;511850;29;1265;-84
2022/05/14 00:40:32;;;;;;;4.05;2.08;;;;;;;;;;511896;29;940;-84
2022/05/14 00:41:01;;;;;;;4.93;2.00;;;;;;;;;;512230;29;841;-84
2022/05/14 00:41:16;;;;;;;4.05;1.83;;;;;;;;;;508066;29;1013;-84
2022/05/14 00:41:32;;;;;;;5.73;2.10;;;;;;;;;;507247;29;1182;-84
2022/05/14 00:41:48;;;;;;;6.25;2.05;;;;;;;;;;509653;29;794;-84
2022/05/14 00:42:04;;;;;;;5.65;1.90;;;;;;;;;;511810;29;818;-84
2022/05/14 00:42:20;;;;;;;4.57;1.83;;;;;;;;;;512395;29;1107;-84
2022/05/14 00:42:35;;;;;;;4.32;1.90;;;;;;;;;;510243;29;1259;-84
2022/05/14 00:42:52;;;;;;;4.37;2.03;;;;;;;;;;510329;29;890;-83
2022/05/14 00:43:09;;;;;;;3.75;1.95;;;;;;;;;;510929;28;1627;-83
2022/05/14 00:43:25;;;;;;;4.07;1.77;;;;;;;;;;513736;28;1263;-84
2022/05/14 00:43:58;;;;;;;4.03;1.80;;;;;;;;;;513840;28;2258;-83
2022/05/14 00:44:14;;;;;;;6.05;2.03;;;;;;;;;;514702;28;1537;-84
2022/05/14 00:44:29;;;;;;;5.43;2.05;;;;;;;;;;515177;28;999;-84
2022/05/14 00:44:44;;;;;;;5.67;2.00;;;;;;;;;;515987;28;1405;-84
2022/05/14 00:45:00;;;;;;;6.07;2.07;;;;;;;;;;514605;28;1591;-84
2022/05/14 00:45:16;;;;;;;5.10;2.10;;;;;;;;;;516192;28;845;-84
2022/05/14 00:45:36;;;;;;;4.25;2.05;;;;;;;;;;515945;28;1384;-84
2022/05/14 00:46:05;;;;;;;4.80;1.95;;;;;;;;;;516057;28;908;-84
2022/05/14 00:46:25;;;;;;;4.30;2.10;;;;;;;;;;515920;28;940;-84
2022/05/14 00:47:02;;;;;;;4.65;2.03;;;;;;;;;;513337;28;1418;-84
2022/05/14 00:47:20;;;;;;;4.70;1.90;;;;;;;;;;513543;28;1480;-84
2022/05/14 00:47:38;;;;;;;3.92;1.75;;;;;;;;;;514176;28;1055;-84
2022/05/14 00:48:00;;;;;;;4.53;1.90;;;;;;;;;;513893;28;1541;-84
2022/05/14 00:48:16;;;;;;;4.72;2.10;;;;;;;;;;513188;28;1594;-84
2022/05/14 00:48:37;;;;;;;5.00;2.10;;;;;;;;;;513363;28;1745;-84
2022/05/14 00:48:57;;;;;;;3.80;1.92;;;;;;;;;;515369;28;2165;-84
2022/05/14 00:49:14;;;;;;;3.85;1.98;;;;;;;;;;516179;28;1906;-84
2022/05/14 00:49:33;;;;;;;4.32;1.90;;;;;;;;;;515145;28;1506;-84
2022/05/14 00:49:49;;;;;;;5.22;2.00;;;;;;;;;;515397;28;1412;-84
2022/05/14 00:50:22;;;;;;;4.55;2.03;;;;;;;;;;516027;28;991;-84
2022/05/14 00:50:41;;;;;;;4.60;1.85;;;;;;;;;;514084;28;937;-83
2022/05/14 00:50:57;;;;;;;3.75;1.73;;;;;;;;;;515977;28;911;-84
2022/05/14 00:51:16;;;;;;;4.07;1.80;;;;;;;;;;515810;28;1571;-84
2022/05/14 00:51:32;;;;;;;5.28;2.00;;;;;;;;;;516985;28;1368;-84
2022/05/14 00:51:48;;;;;;;4.80;1.98;;;;;;;;;;518031;28;1039;-84
2022/05/14 00:52:04;;;;;;;3.67;1.80;;;;;;;;;;517291;28;774;-83
2022/05/14 00:52:22;;;;;;;3.53;1.80;;;;;;;;;;517136;28;1653;-83
2022/05/14 00:52:37;;;;;;;3.15;1.80;;;;;;;;;;517555;28;1601;-83
2022/05/14 00:53:01;;;;;;;3.20;1.90;;;;;;;;;;516121;28;2267;-82
2022/05/14 00:53:22;;;;;;;3.90;1.90;;;;;;;;;;512222;28;1536;-83
2022/05/14 00:53:44;;;;;;;4.05;1.88;;;;;;;;;;512026;28;2189;-83
2022/05/14 00:54:06;;;;;;;4.35;1.83;;;;;;;;;;511619;29;1428;-83
2022/05/14 00:54:31;;;;;;;4.95;1.90;;;;;;;;;;511534;28;1628;-83
2022/05/14 00:54:55;;;;;;;4.75;2.00;;;;;;;;;;511832;28;941;-84
2022/05/14 00:55:11;;;;;;;5.28;1.95;;;;;;;;;;513975;28;1599;-83
2022/05/14 00:55:27;;;;;;;4.47;1.90;;;;;;;;;;515592;28;1225;-83
2022/05/14 00:55:46;;;;;;;4.47;1.92;;;;;;;;;;514461;28;1591;-83
2022/05/14 00:56:06;;;;;;;4.80;1.88;;;;;;;;;;517282;28;1567;-83
2022/05/14 00:56:26;;;;;;;6.45;2.20;;;;;;;;;;517770;28;1479;-83
2022/05/14 00:56:50;;;;;;;5.53;1.98;;;;;;;;;;517643;28;1655;-84
2022/05/14 00:57:11;;;;;;;4.30;1.88;;;;;;;;;;516342;28;1590;-84
2022/05/14 00:57:33;;;;;;;3.78;1.90;;;;;;;;;;517484;28;1589;-84
2022/05/14 00:57:49;;;;;;;4.35;2.05;;;;;;;;;;515968;28;868;-84
2022/05/14 00:58:08;;;;;;;4.63;2.10;;;;;;;;;;515984;28;917;-84
2022/05/14 00:58:40;;;;;;;4.57;1.88;;;;;;;;;;515421;28;1245;-84
2022/05/14 00:59:06;;;;;;;5.05;1.80;;;;;;;;;;516371;28;1481;-84
2022/05/14 00:59:24;;;;;;;4.03;1.80;;;;;;;;;;517059;28;1363;-84
2022/05/14 00:59:40;;;;;;;5.32;2.00;;;;;;;;;;517392;28;1624;-84
2022/05/14 00:59:58;;;;;;;3.70;1.77;;;;;;;;;;517031;28;1234;-84
2022/05/14 01:00:19;;;;;;;5.43;1.90;;;;;;;;;;516197;28;1539;-84
2022/05/14 01:00:36;;;;;;;4.80;1.90;;;;;;;;;;517055;28;1404;-83
2022/05/14 01:00:51;;;;;;;4.32;1.98;;;;;;;;;;515996;28;1491;-84
2022/05/14 01:01:07;;;;;;;4.85;2.10;;;;;;;;;;514509;28;1533;-84
2022/05/14 01:01:23;;;;;;;5.10;1.90;;;;;;;;;;515098;28;1898;-84
2022/05/14 01:01:39;;;;;;;4.82;1.80;;;;;;;;;;515884;28;1114;-84
2022/05/14 01:01:56;;;;;;;3.55;1.70;;;;;;;;;;515552;28;1706;-84
2022/05/14 01:02:11;;;;;;;4.45;1.90;;;;;;;;;;515401;28;1464;-84
2022/05/14 01:02:28;;;;;;;5.18;1.95;;;;;;;;;;516162;28;1224;-84
2022/05/14 01:02:44;;;;;;;4.43;1.90;;;;;;;;;;516315;28;1518;-84
2022/05/14 01:02:59;;;;;;;5.10;2.00;;;;;;;;;;517355;28;920;-84
2022/05/14 01:03:14;;;;;;;5.93;2.20;;;;;;;;;;516975;28;1472;-84
2022/05/14 01:03:30;;;;;;;4.30;2.00;;;;;;;;;;517843;28;912;-84
2022/05/14 01:03:47;;;;;;;3.75;1.80;;;;;;;;;;518113;28;995;-84
2022/05/14 01:04:02;;;;;;;4.13;1.98;;;;;;;;;;518105;28;927;-84
2022/05/14 01:04:20;;;;;;;4.78;2.00;;;;;;;;;;514605;28;1252;-84
2022/05/14 01:04:39;;;;;;;4.78;1.88;;;;;;;;;;512926;28;1454;-84
2022/05/14 01:04:54;;;;;;;4.15;1.88;;;;;;;;;;513785;28;1498;-84
2022/05/14 01:05:11;;;;;;;4.10;1.80;;;;;;;;;;513670;28;1343;-84
2022/05/14 01:05:27;;;;;;;5.20;1.77;;;;;;;;;;513535;28;1499;-84
2022/05/14 01:05:42;;;;;;;6.00;1.75;;;;;;;;;;513907;28;1340;-84
2022/05/14 01:06:00;;;;;;;5.65;1.90;;;;;;;;;;513551;28;1572;-84
2022/05/14 01:06:19;;;;;;;4.35;1.90;;;;;;;;;;515527;28;1284;-84
2022/05/14 01:06:37;;;;;;;3.50;1.80;;;;;;;;;;516708;28;1455;-84
2022/05/14 01:06:59;;;;;;;4.18;2.10;;;;;;;;;;516481;28;875;-84
2022/05/14 01:07:17;;;;;;;4.00;1.90;;;;;;;;;;515308;28;1743;-84
2022/05/14 01:07:33;;;;;;;3.00;1.65;;;;;;;;;;513531;28;1540;-84
2022/05/14 01:07:50;;;;;;;3.33;1.60;;;;;;;;;;510625;28;1453;-83
2022/05/14 01:08:05;;;;;;;3.63;1.77;;;;;;;;;;512353;28;876;-84
2022/05/14 01:08:21;;;;;;;3.25;1.80;;;;;;;;;;513622;28;1800;-84
2022/05/14 01:08:36;;;;;;;3.37;1.70;;;;;;;;;;513659;28;1611;-84
2022/05/14 01:08:51;;;;;;;4.40;1.70;;;;;;;;;;513796;28;1348;-84
2022/05/14 01:09:07;;;;;;;4.60;1.83;;;;;;;;;;513363;28;1931;-84
2022/05/14 01:09:24;;;;;;;3.85;1.90;;;;;;;;;;514547;28;1757;-84
2022/05/14 01:09:43;;;;;;;4.40;1.90;;;;;;;;;;516070;28;1596;-84
2022/05/14 01:10:03;;;;;;;5.47;2.00;;;;;;;;;;514779;28;1714;-84
2022/05/14 01:10:22;;;;;;;5.18;1.98;;;;;;;;;;515173;28;1864;-84
2022/05/14 01:10:42;;;;;;;4.85;2.05;;;;;;;;;;515666;28;1361;-84
2022/05/14 01:10:58;;;;;;;4.63;1.92;;;;;;;;;;515748;28;1341;-84
2022/05/14 01:11:14;;;;;;;4.40;1.80;;;;;;;;;;513326;28;1482;-84
2022/05/14 01:11:31;;;;;;;3.92;1.80;;;;;;;;;;512612;28;1505;-84
2022/05/14 01:11:49;;;;;;;4.13;1.70;;;;;;;;;;513751;28;1249;-84
2022/05/14 01:12:07;;;;;;;3.40;1.63;;;;;;;;;;516126;28;865;-84
2022/05/14 01:12:24;;;;;;;3.63;1.80;;;;;;;;;;515985;28;1967;-84
2022/05/14 01:12:49;;;;;;;4.18;1.95;;;;;;;;;;515595;28;1539;-84
2022/05/14 01:13:05;;;;;;;5.90;2.00;;;;;;;;;;516989;28;999;-84
2022/05/14 01:13:20;;;;;;;5.10;1.93;;;;;;;;;;515628;28;1804;-84
2022/05/14 01:13:35;;;;;;;2.60;1.60;;;;;;;;;;516462;28;999;-84
2022/05/14 01:13:51;;;;;;;3.13;1.60;;;;;;;;;;514200;28;1491;-84
2022/05/14 01:14:07;;;;;;;3.67;1.70;;;;;;;;;;516850;28;900;-83
2022/05/14 01:14:22;;;;;;;3.90;1.80;;;;;;;;;;516294;28;864;-83
2022/05/14 01:14:38;;;;;;;4.72;1.88;;;;;;;;;;516181;28;944;-84
2022/05/14 01:14:53;;;;;;;3.87;1.77;;;;;;;;;;516130;28;832;-84
2022/05/14 01:15:15;;;;;;;3.47;1.65;;;;;;;;;;515821;28;1518;-84
2022/05/14 01:15:40;;;;;;;4.45;1.92;;;;;;;;;;515531;28;1570;-84
2022/05/14 01:15:57;;;;;;;4.38;1.80;;;;;;;;;;517939;28;1178;-84
2022/05/14 01:16:13;;;;;;;3.95;1.70;;;;;;;;;;517171;28;1322;-84
2022/05/14 01:16:29;;;;;;;3.67;1.90;;;;;;;;;;517695;28;1499;-84
2022/05/14 01:16:45;;;;;;;4.15;1.90;;;;;;;;;;515620;28;1780;-84
2022/05/14 01:17:00;;;;;;;4.17;1.87;;;;;;;;;;516087;28;924;-84
2022/05/14 01:17:16;;;;;;;3.42;1.80;;;;;;;;;;515830;28;1770;-84
2022/05/14 01:17:31;;;;;;;3.70;1.73;;;;;;;;;;515994;28;927;-84
2022/05/14 01:17:47;;;;;;;3.92;1.85;;;;;;;;;;516248;28;881;-84
2022/05/14 01:18:02;;;;;;;4.27;2.07;;;;;;;;;;516029;28;1615;-84
2022/05/14 01:18:22;;;;;;;4.63;2.00;;;;;;;;;;516063;28;1183;-84
2022/05/14 01:18:38;;;;;;;4.38;1.90;;;;;;;;;;516541;28;1538;-84
2022/05/14 01:18:53;;;;;;;4.43;1.85;;;;;;;;;;516958;28;924;-84
2022/05/14 01:19:10;;;;;;;4.53;1.90;;;;;;;;;;517826;28;901;-84
2022/05/14 01:19:26;;;;;;;5.90;2.08;;;;;;;;;;516183;28;1595;-84
2022/05/14 01:19:42;;;;;;;5.15;2.00;;;;;;;;;;517924;28;1258;-82
2022/05/14 01:19:57;;;;;;;3.42;1.90;;;;;;;;;;517494;28;1566;-83
2022/05/14 01:20:16;;;;;;;2.80;1.80;;;;;;;;;;517577;28;1388;-83
2022/05/14 01:20:35;;;;;;;3.10;1.75;;;;;;;;;;517148;28;1447;-83
2022/05/14 01:20:58;;;;;;;3.33;1.73;;;;;;;;;;516114;28;891;-83
2022/05/14 01:21:24;;;;;;;4.28;1.92;;;;;;;;;;516475;28;1484;-84
2022/05/14 01:22:12;;;;;;;4.70;1.92;;;;;;;;;;517102;28;1598;-84
2022/05/14 01:22:42;;;;;;;4.40;1.90;;;;;;;;;;507219;29;1198;-82
2022/05/14 01:23:31;;;;;;;4.18;1.85;;;;;;;;;;507696;29;1446;-82
2022/05/14 01:26:30;;;;;;;3.72;2.05;;;;;;;;;;517522;28;1466;-84
2022/05/14 01:26:47;;;;;;;3.63;2.00;;;;;;;;;;516849;28;1419;-84
2022/05/14 01:27:03;;;;;;;4.03;1.90;;;;;;;;;;517490;28;1427;-84
2022/05/14 01:27:19;;;;;;;4.07;1.95;;;;;;;;;;516813;28;1320;-84
2022/05/14 01:27:34;;;;;;;4.68;2.13;;;;;;;;;;515662;28;1515;-84
2022/05/14 01:27:51;;;;;;;4.70;2.00;;;;;;;;;;515165;28;1621;-84
2022/05/14 01:28:06;;;;;;;4.45;2.00;;;;;;;;;;515167;28;1597;-82
2022/05/14 01:28:22;;;;;;;3.97;1.90;;;;;;;;;;513520;28;1571;-82
2022/05/14 01:28:37;;;;;;;3.50;1.90;;;;;;;;;;513440;28;1481;-83
2022/05/14 01:28:52;;;;;;;4.67;1.90;;;;;;;;;;512533;28;1229;-83
2022/05/14 01:29:13;;;;;;;4.97;1.80;;;;;;;;;;511819;28;1988;-83
2022/05/14 01:29:29;;;;;;;4.28;1.80;;;;;;;;;;513905;28;901;-83
2022/05/14 01:29:46;;;;;;;4.38;1.83;;;;;;;;;;515266;28;1535;-83
2022/05/14 01:30:02;;;;;;;3.50;1.80;;;;;;;;;;515985;28;1351;-84
2022/05/14 01:30:18;;;;;;;4.20;1.90;;;;;;;;;;514696;28;1548;-84
2022/05/14 01:30:33;;;;;;;5.67;2.10;;;;;;;;;;514732;28;1047;-84
2022/05/14 01:30:54;;;;;;;4.87;2.00;;;;;;;;;;513496;28;1509;-84
2022/05/14 01:31:10;;;;;;;4.20;1.88;;;;;;;;;;513733;28;1154;-84
2022/05/14 01:31:27;;;;;;;4.17;1.77;;;;;;;;;;515197;28;834;-84
2022/05/14 01:31:42;;;;;;;4.75;1.98;;;;;;;;;;513894;28;1095;-84
2022/05/14 01:31:58;;;;;;;5.50;2.03;;;;;;;;;;514441;28;936;-84
2022/05/14 01:32:14;;;;;;;6.13;2.07;;;;;;;;;;516856;28;1562;-84
2022/05/14 01:32:29;;;;;;;5.22;2.00;;;;;;;;;;517979;28;1171;-84
2022/05/14 01:32:46;;;;;;;4.07;2.00;;;;;;;;;;518852;28;1584;-84
2022/05/14 01:33:07;;;;;;;4.38;2.00;;;;;;;;;;518567;28;1014;-83
2022/05/14 01:33:23;;;;;;;3.28;2.05;;;;;;;;;;518988;28;1366;-83
2022/05/14 01:33:38;;;;;;;3.35;2.00;;;;;;;;;;518955;28;1474;-83
2022/05/14 01:33:55;;;;;;;3.93;1.90;;;;;;;;;;518691;28;899;-84
2022/05/14 01:34:17;;;;;;;4.10;1.92;;;;;;;;;;519407;28;1406;-84
2022/05/14 01:34:34;;;;;;;3.47;2.00;;;;;;;;;;517765;28;1591;-84
2022/05/14 01:34:50;;;;;;;4.57;1.90;;;;;;;;;;517295;28;1134;-84
2022/05/14 01:35:06;;;;;;;5.13;1.90;;;;;;;;;;516465;28;805;-84
2022/05/14 01:35:22;;;;;;;4.55;1.90;;;;;;;;;;516600;28;1570;-84
2022/05/14 01:35:40;;;;;;;3.85;1.90;;;;;;;;;;515035;28;1208;-83
2022/05/14 01:35:55;;;;;;;4.40;2.00;;;;;;;;;;515745;28;1039;-84
2022/05/14 01:36:11;;;;;;;4.25;2.05;;;;;;;;;;514053;28;1556;-84
2022/05/14 01:36:26;;;;;;;4.70;2.10;;;;;;;;;;517644;28;994;-84
2022/05/14 01:36:41;;;;;;;5.30;1.97;;;;;;;;;;517317;28;1578;-84
2022/05/14 01:36:57;;;;;;;6.43;2.00;;;;;;;;;;515940;28;1144;-84
2022/05/14 01:37:13;;;;;;;6.18;2.10;;;;;;;;;;516499;28;1693;-84
2022/05/14 01:37:28;;;;;;;3.83;2.17;;;;;;;;;;518351;28;829;-83
2022/05/14 01:37:44;;;;;;;3.30;2.13;;;;;;;;;;519616;28;1588;-84
2022/05/14 01:37:59;;;;;;;3.95;2.08;;;;;;;;;;518042;28;1447;-84
2022/05/14 01:38:16;;;;;;;4.05;2.05;;;;;;;;;;517762;28;1193;-84
2022/05/14 01:38:31;;;;;;;4.32;2.08;;;;;;;;;;517735;28;1648;-84
2022/05/14 01:38:47;;;;;;;4.28;2.00;;;;;;;;;;515592;28;1229;-84
2022/05/14 01:39:04;;;;;;;4.67;2.20;;;;;;;;;;514383;28;1243;-84
2022/05/14 01:39:19;;;;;;;4.28;2.20;;;;;;;;;;515612;28;1496;-84
2022/05/14 01:39:35;;;;;;;3.70;2.00;;;;;;;;;;515995;28;1487;-84
2022/05/14 01:39:51;;;;;;;4.10;2.07;;;;;;;;;;515023;28;1442;-84
2022/05/14 01:40:07;;;;;;;3.53;1.90;;;;;;;;;;515690;28;1445;-84
2022/05/14 01:40:22;;;;;;;4.45;2.10;;;;;;;;;;517354;28;1497;-84
2022/05/14 01:40:38;;;;;;;5.00;2.20;;;;;;;;;;515617;28;1374;-84
2022/05/14 01:40:53;;;;;;;4.03;2.00;;;;;;;;;;515336;28;754;-84
2022/05/14 01:41:09;;;;;;;4.03;1.92;;;;;;;;;;514981;28;1246;-84
2022/05/14 01:41:25;;;;;;;3.97;1.98;;;;;;;;;;515479;28;872;-84
2022/05/14 01:41:41;;;;;;;3.75;1.90;;;;;;;;;;514127;28;1598;-84
2022/05/14 01:41:57;;;;;;;3.23;1.87;;;;;;;;;;517469;28;1137;-84
2022/05/14 01:42:12;;;;;;;2.83;1.80;;;;;;;;;;516014;28;1661;-84
2022/05/14 01:42:27;;;;;;;3.55;2.00;;;;;;;;;;517979;28;900;-84
2022/05/14 01:42:43;;;;;;;3.73;2.10;;;;;;;;;;519235;28;1618;-84
2022/05/14 01:42:58;;;;;;;3.70;2.10;;;;;;;;;;521050;28;929;-84
2022/05/14 01:43:14;;;;;;;3.63;1.90;;;;;;;;;;518323;28;1370;-84
2022/05/14 01:43:30;;;;;;;3.63;1.80;;;;;;;;;;517790;28;1184;-84
2022/05/14 01:43:46;;;;;;;4.38;2.00;;;;;;;;;;517519;28;905;-84
2022/05/14 01:44:01;;;;;;;4.10;2.00;;;;;;;;;;516858;28;1614;-84
2022/05/14 01:44:17;;;;;;;4.43;2.00;;;;;;;;;;516825;28;1289;-84
2022/05/14 01:44:33;;;;;;;3.67;1.90;;;;;;;;;;516844;28;1554;-84
2022/05/14 01:44:48;;;;;;;4.30;1.90;;;;;;;;;;516605;28;1859;-84
2022/05/14 01:45:04;;;;;;;4.82;2.00;;;;;;;;;;517502;28;1376;-84
2022/05/14 01:45:20;;;;;;;4.70;1.90;;;;;;;;;;515928;28;1169;-84
2022/05/14 01:45:36;;;;;;;4.38;1.88;;;;;;;;;;515963;28;1639;-84
2022/05/14 01:45:51;;;;;;;5.93;2.03;;;;;;;;;;515785;28;1685;-84
2022/05/14 01:46:07;;;;;;;5.60;2.00;;;;;;;;;;516972;28;1472;-84
2022/05/14 01:46:23;;;;;;;2.65;1.65;;;;;;;;;;516529;28;1409;-84
2022/05/14 01:46:39;;;;;;;3.20;1.80;;;;;;;;;;515933;28;1526;-84
2022/05/14 01:46:54;;;;;;;4.37;2.00;;;;;;;;;;514351;28;849;-84
2022/05/14 01:47:10;;;;;;;4.30;2.00;;;;;;;;;;516087;28;1554;-84
2022/05/14 01:47:26;;;;;;;4.45;2.30;;;;;;;;;;517042;28;1434;-84
2022/05/14 01:47:41;;;;;;;6.63;2.40;;;;;;;;;;515985;28;821;-84
2022/05/14 01:47:57;;;;;;;6.53;2.20;;;;;;;;;;513720;28;1281;-84
2022/05/14 01:48:12;;;;;;;4.40;2.10;;;;;;;;;;513749;28;869;-84
2022/05/14 01:48:27;;;;;;;4.00;2.00;;;;;;;;;;515236;28;1325;-83
2022/05/14 01:48:43;;;;;;;3.53;1.97;;;;;;;;;;517420;28;1676;-83
2022/05/14 01:48:59;;;;;;;3.72;2.00;;;;;;;;;;517243;28;991;-83
2022/05/14 01:49:14;;;;;;;4.73;2.10;;;;;;;;;;516067;28;1918;-83
2022/05/14 01:49:30;;;;;;;5.03;2.10;;;;;;;;;;515436;28;1401;-83
2022/05/14 01:49:45;;;;;;;3.70;2.00;;;;;;;;;;514501;28;1591;-83
2022/05/14 01:50:01;;;;;;;3.10;2.15;;;;;;;;;;514191;28;885;-83
2022/05/14 01:50:17;;;;;;;4.40;2.15;;;;;;;;;;516607;28;1339;-82
2022/05/14 01:50:33;;;;;;;4.03;2.00;;;;;;;;;;516103;28;1156;-83
2022/05/14 01:50:48;;;;;;;3.80;1.90;;;;;;;;;;514709;28;2162;-84
2022/05/14 01:51:04;;;;;;;5.40;1.97;;;;;;;;;;516104;28;829;-84